Time;durP1;ratioP1;P1;durP2;ratioP2;P2;SDS_P1;SDS_P2;PMS_P1;PMS_P2;Temp;Humidity;BMP_temperature;BMP_pressure;BME280_temperature;BME280_humidity;BME280_pressure;Samples;Min_cycle;Max_cycle;Signal;HPM_P1;HPM_P2
2023/07/30 00:01:30;;;;;;;25.50;11.35;;;15.80;99.90;;;;;;5045471;28;20735;-76
2023/07/30 00:03:57;;;;;;;16.05;11.80;;;15.90;99.90;;;;;;5054947;28;20043;-74
2023/07/30 00:06:24;;;;;;;18.40;13.05;;;15.80;99.90;;;;;;5053150;28;20047;-75
2023/07/30 00:08:51;;;;;;;16.75;12.02;;;15.70;99.90;;;;;;5054130;28;20047;-75
2023/07/30 00:11:18;;;;;;;19.20;13.07;;;15.70;99.90;;;;;;5049785;28;20036;-75
2023/07/30 00:13:44;;;;;;;19.58;14.18;;;15.80;99.90;;;;;;5049944;28;20072;-75
2023/07/30 00:16:11;;;;;;;20.77;14.55;;;15.80;99.90;;;;;;5049564;28;20100;-75
2023/07/30 00:18:38;;;;;;;21.42;15.55;;;15.80;99.90;;;;;;5042603;28;20041;-75
2023/07/30 00:21:05;;;;;;;23.73;16.83;;;15.80;99.90;;;;;;5055193;28;20337;-75
2023/07/30 00:23:32;;;;;;;26.83;18.17;;;15.90;99.90;;;;;;5050434;28;20102;-75
2023/07/30 00:25:58;;;;;;;28.52;18.35;;;15.90;99.90;;;;;;5053067;28;20036;-75
2023/07/30 00:28:25;;;;;;;33.45;18.92;;;16.00;99.90;;;;;;5036678;28;20564;-75
2023/07/30 00:30:52;;;;;;;24.92;17.15;;;15.90;99.90;;;;;;5057312;28;20040;-75
2023/07/30 00:33:19;;;;;;;29.65;19.70;;;16.00;99.90;;;;;;5053553;28;20127;-75
2023/07/30 00:35:46;;;;;;;33.28;20.13;;;16.00;99.90;;;;;;5052258;28;21347;-75
2023/07/30 00:38:14;;;;;;;30.02;20.05;;;16.10;99.90;;;;;;5018707;28;20067;-75
2023/07/30 00:40:41;;;;;;;27.55;19.08;;;16.10;99.90;;;;;;5044277;28;20041;-75
2023/07/30 00:43:08;;;;;;;28.80;19.88;;;16.10;99.90;;;;;;5054783;28;20049;-75
2023/07/30 00:45:35;;;;;;;32.30;19.92;;;16.10;99.90;;;;;;5050398;28;20128;-75
2023/07/30 00:48:02;;;;;;;30.05;18.70;;;16.10;99.90;;;;;;5055126;28;20053;-75
2023/07/30 00:50:30;;;;;;;31.73;20.08;;;16.10;99.90;;;;;;5033410;28;20072;-74
2023/07/30 00:52:57;;;;;;;33.33;19.63;;;16.10;99.90;;;;;;5048638;28;20037;-74
2023/07/30 00:55:24;;;;;;;34.88;20.75;;;16.20;99.90;;;;;;5035614;28;20033;-74
2023/07/30 00:57:51;;;;;;;32.30;19.95;;;16.20;99.90;;;;;;5054924;28;20267;-74
2023/07/30 01:00:18;;;;;;;36.95;20.20;;;16.20;99.90;;;;;;5028301;28;20043;-75
2023/07/30 01:02:45;;;;;;;39.83;23.55;;;16.30;99.90;;;;;;5010988;28;20033;-74
2023/07/30 01:05:12;;;;;;;39.45;23.65;;;16.30;99.90;;;;;;5018552;28;20045;-75
2023/07/30 01:07:39;;;;;;;39.88;22.33;;;16.30;99.90;;;;;;5017816;28;20813;-75
2023/07/30 01:10:06;;;;;;;38.30;21.92;;;16.30;99.90;;;;;;5031153;28;20097;-75
2023/07/30 01:12:34;;;;;;;39.00;23.10;;;16.40;99.90;;;;;;5024243;28;20053;-75
2023/07/30 01:15:01;;;;;;;38.83;23.52;;;16.40;99.90;;;;;;5028920;28;20511;-75
2023/07/30 01:17:28;;;;;;;41.78;24.13;;;16.40;99.90;;;;;;5014093;28;20083;-74
2023/07/30 01:19:55;;;;;;;42.97;23.67;;;16.40;99.90;;;;;;5018443;28;20052;-76
2023/07/30 01:22:23;;;;;;;40.30;24.05;;;16.40;99.90;;;;;;5015828;28;20510;-76
2023/07/30 01:24:50;;;;;;;44.53;24.73;;;16.40;99.90;;;;;;5014631;28;20037;-74
2023/07/30 01:27:24;;;;;;;46.35;25.60;;;16.50;99.90;;;;;;5031074;28;20048;-74
2023/07/30 01:30:08;;;;;;;47.03;25.17;;;16.40;99.90;;;;;;5025648;28;20056;-76
2023/07/30 01:32:37;;;;;;;50.40;27.35;;;16.40;99.90;;;;;;5028081;28;20057;-74
2023/07/30 01:35:08;;;;;;;49.95;26.20;;;16.40;99.90;;;;;;5018159;28;20069;-74
2023/07/30 01:37:38;;;;;;;55.45;27.10;;;16.40;99.90;;;;;;5005178;28;20071;-75
2023/07/30 01:40:06;;;;;;;52.47;27.15;;;16.40;99.90;;;;;;5034326;28;20667;-75
2023/07/30 01:42:33;;;;;;;57.78;29.92;;;16.40;99.90;;;;;;5015732;28;20126;-74
2023/07/30 01:45:00;;;;;;;52.47;27.88;;;16.40;99.90;;;;;;5022970;28;20739;-76
2023/07/30 01:47:26;;;;;;;57.55;29.90;;;16.40;99.90;;;;;;5017161;28;20036;-75
2023/07/30 01:49:53;;;;;;;51.83;28.95;;;16.40;99.90;;;;;;5032134;28;20504;-75
2023/07/30 01:52:20;;;;;;;58.65;31.92;;;16.40;99.90;;;;;;5021644;28;20036;-75
2023/07/30 01:54:47;;;;;;;55.30;29.95;;;16.40;99.90;;;;;;5019730;28;20034;-75
2023/07/30 01:57:13;;;;;;;62.50;32.63;;;16.40;99.90;;;;;;5016599;28;20150;-75
2023/07/30 01:59:41;;;;;;;57.03;31.55;;;16.40;99.90;;;;;;4994586;28;20049;-75
2023/07/30 02:02:08;;;;;;;54.58;29.98;;;16.30;99.90;;;;;;5015354;28;20038;-75
2023/07/30 02:04:35;;;;;;;49.63;28.48;;;16.30;99.90;;;;;;5008305;28;20053;-75
2023/07/30 02:07:02;;;;;;;41.30;26.42;;;16.30;99.90;;;;;;5031678;28;20045;-76
2023/07/30 02:09:28;;;;;;;42.78;22.30;;;16.20;99.90;;;;;;5037076;28;20044;-76
2023/07/30 02:11:55;;;;;;;41.47;22.27;;;16.20;99.90;;;;;;5001208;28;20195;-75
2023/07/30 02:14:23;;;;;;;35.53;21.85;;;16.10;99.90;;;;;;5012640;28;20045;-75
2023/07/30 02:16:50;;;;;;;36.88;21.55;;;16.10;99.90;;;;;;5030071;28;20062;-75
2023/07/30 02:19:17;;;;;;;38.67;19.63;;;16.10;99.90;;;;;;5018448;28;20116;-75
2023/07/30 02:21:44;;;;;;;33.17;19.75;;;16.10;99.90;;;;;;5035597;28;20126;-75
2023/07/30 02:24:11;;;;;;;34.72;19.30;;;16.00;99.90;;;;;;5034064;28;20041;-75
2023/07/30 02:26:38;;;;;;;33.50;19.52;;;16.00;99.90;;;;;;5008081;28;20044;-75
2023/07/30 02:29:05;;;;;;;36.00;19.85;;;15.90;99.90;;;;;;5037074;28;20060;-75
2023/07/30 02:31:32;;;;;;;33.30;18.20;;;15.90;99.90;;;;;;5019863;28;20419;-75
2023/07/30 02:33:59;;;;;;;33.30;18.70;;;15.80;99.90;;;;;;5032251;28;20573;-75
2023/07/30 02:36:26;;;;;;;30.95;17.63;;;15.80;99.90;;;;;;5029215;28;20064;-75
2023/07/30 02:38:53;;;;;;;28.85;16.33;;;15.70;99.90;;;;;;5030626;28;21442;-75
2023/07/30 02:41:20;;;;;;;29.42;15.25;;;15.60;99.90;;;;;;5033004;28;20048;-74
2023/07/30 02:43:46;;;;;;;31.48;14.73;;;15.60;99.90;;;;;;5033958;28;20107;-74
2023/07/30 02:46:13;;;;;;;23.45;13.95;;;15.50;99.90;;;;;;5022463;28;20667;-75
2023/07/30 02:48:40;;;;;;;27.98;13.73;;;15.50;99.90;;;;;;5021690;28;21366;-74
2023/07/30 02:51:07;;;;;;;25.58;13.23;;;15.50;99.90;;;;;;5030563;28;20057;-74
2023/07/30 02:53:33;;;;;;;25.77;12.63;;;15.40;99.90;;;;;;5028460;28;20044;-74
2023/07/30 02:56:00;;;;;;;26.70;12.95;;;15.40;99.90;;;;;;5018857;28;20041;-74
2023/07/30 02:58:27;;;;;;;25.67;13.02;;;15.30;99.90;;;;;;5025743;28;20049;-76
2023/07/30 03:00:54;;;;;;;20.95;11.95;;;15.30;99.90;;;;;;5010743;28;21217;-76
2023/07/30 03:03:21;;;;;;;24.83;12.18;;;15.30;99.90;;;;;;5026546;28;20053;-74
2023/07/30 03:05:48;;;;;;;26.80;14.45;;;15.30;99.90;;;;;;5014937;28;20129;-75
2023/07/30 03:08:14;;;;;;;22.52;12.43;;;15.20;99.90;;;;;;5023173;28;20130;-75
2023/07/30 03:10:41;;;;;;;28.23;12.07;;;15.20;99.90;;;;;;5027662;28;20052;-75
2023/07/30 03:13:08;;;;;;;20.55;11.35;;;15.20;99.90;;;;;;5052846;28;20121;-75
2023/07/30 03:15:35;;;;;;;17.83;11.77;;;15.10;99.90;;;;;;5047913;28;20134;-75
2023/07/30 03:18:02;;;;;;;20.38;11.55;;;15.00;99.90;;;;;;5031996;28;20053;-75
2023/07/30 03:20:29;;;;;;;19.40;10.20;;;15.00;99.90;;;;;;5017873;28;20049;-75
2023/07/30 03:22:55;;;;;;;20.13;11.32;;;15.00;99.90;;;;;;5054366;28;20075;-75
2023/07/30 03:25:22;;;;;;;15.00;9.27;;;14.90;99.90;;;;;;5049367;28;20056;-73
2023/07/30 03:27:49;;;;;;;14.23;8.23;;;14.90;99.90;;;;;;5032739;28;20052;-76
2023/07/30 03:30:18;;;;;;;19.27;9.05;;;14.80;99.90;;;;;;5052323;28;20059;-73
2023/07/30 03:32:45;;;;;;;18.17;9.13;;;14.70;99.90;;;;;;5051453;28;20048;-74
2023/07/30 03:35:13;;;;;;;16.77;8.57;;;14.70;99.90;;;;;;5045201;28;20102;-73
2023/07/30 03:37:39;;;;;;;15.48;7.38;;;14.60;99.90;;;;;;5057586;28;20512;-73
2023/07/30 03:40:07;;;;;;;15.32;8.27;;;14.50;99.90;;;;;;5036641;28;20699;-73
2023/07/30 03:42:33;;;;;;;12.20;6.95;;;14.50;99.90;;;;;;5038198;28;20044;-73
2023/07/30 03:45:00;;;;;;;14.38;8.00;;;14.40;99.90;;;;;;5035891;28;20037;-74
2023/07/30 03:47:27;;;;;;;14.30;8.05;;;14.30;99.90;;;;;;5038074;28;20039;-74
2023/07/30 03:49:54;;;;;;;15.10;7.40;;;14.30;99.90;;;;;;5031620;28;20133;-74
2023/07/30 03:52:21;;;;;;;15.27;6.72;;;14.20;99.90;;;;;;5033352;28;20048;-74
2023/07/30 03:54:48;;;;;;;11.55;7.15;;;14.20;99.90;;;;;;5033430;28;20770;-74
2023/07/30 03:57:14;;;;;;;13.27;7.88;;;14.10;99.90;;;;;;5017821;28;20482;-73
2023/07/30 03:59:41;;;;;;;18.45;8.32;;;14.10;99.90;;;;;;5030096;28;21321;-74
2023/07/30 04:02:08;;;;;;;18.65;8.05;;;14.00;99.90;;;;;;5029552;28;20106;-74
2023/07/30 04:04:34;;;;;;;17.70;7.85;;;14.00;99.90;;;;;;5022463;28;20607;-75
2023/07/30 04:07:01;;;;;;;18.98;7.55;;;13.90;99.90;;;;;;5029237;28;20730;-74
2023/07/30 04:09:28;;;;;;;12.77;7.72;;;13.90;99.90;;;;;;5030570;28;20045;-74
2023/07/30 04:11:55;;;;;;;14.32;8.50;;;13.90;99.90;;;;;;5028827;28;20041;-74
2023/07/30 04:14:22;;;;;;;13.38;8.23;;;13.80;99.90;;;;;;5024408;28;20521;-73
2023/07/30 04:16:49;;;;;;;10.98;6.97;;;13.80;99.90;;;;;;5027338;28;20033;-74
2023/07/30 04:19:15;;;;;;;20.17;8.32;;;13.80;99.90;;;;;;5033188;28;20041;-74
2023/07/30 04:21:42;;;;;;;16.38;8.27;;;13.70;99.90;;;;;;5027239;28;20115;-74
2023/07/30 04:24:09;;;;;;;18.13;8.32;;;13.70;99.90;;;;;;5034347;28;20528;-74
2023/07/30 04:26:35;;;;;;;17.77;9.45;;;13.70;99.90;;;;;;5026615;28;20059;-74
2023/07/30 04:29:02;;;;;;;17.20;8.25;;;13.70;99.90;;;;;;5032589;28;20052;-74
2023/07/30 04:31:29;;;;;;;19.33;7.82;;;13.70;99.90;;;;;;5025418;28;20053;-74
2023/07/30 04:33:57;;;;;;;17.38;7.75;;;13.60;99.90;;;;;;5011926;28;20041;-73
2023/07/30 04:36:24;;;;;;;15.20;7.57;;;13.60;99.90;;;;;;5032257;28;20090;-74
2023/07/30 04:38:51;;;;;;;13.77;7.38;;;13.60;99.90;;;;;;5014013;28;20053;-74
2023/07/30 04:41:20;;;;;;;20.08;7.97;;;13.60;99.90;;;;;;5001851;28;20052;-75
2023/07/30 04:43:52;;;;;;;13.57;7.40;;;13.60;99.90;;;;;;5007583;28;20692;-74
2023/07/30 04:46:19;;;;;;;12.38;7.43;;;13.60;99.90;;;;;;5037431;28;20049;-74
2023/07/30 04:48:46;;;;;;;15.50;7.40;;;13.70;99.90;;;;;;5010210;28;22022;-74
2023/07/30 04:51:16;;;;;;;17.40;7.38;;;13.70;99.90;;;;;;5017314;28;20418;-74
2023/07/30 04:53:42;;;;;;;10.35;6.97;;;13.70;99.90;;;;;;5014519;28;20333;-73
2023/07/30 04:56:09;;;;;;;20.55;7.05;;;13.70;99.90;;;;;;5034300;28;20045;-73
2023/07/30 04:58:36;;;;;;;14.43;7.63;;;13.70;99.90;;;;;;5015150;28;20581;-74
2023/07/30 05:01:02;;;;;;;15.32;6.85;;;13.80;99.90;;;;;;5017167;28;20049;-73
2023/07/30 05:03:29;;;;;;;18.50;7.65;;;13.80;99.90;;;;;;5023611;28;20049;-74
2023/07/30 05:05:56;;;;;;;13.70;7.30;;;13.90;99.90;;;;;;5025202;28;20041;-73
2023/07/30 05:08:22;;;;;;;21.13;8.18;;;13.80;99.90;;;;;;5031253;28;20049;-74
2023/07/30 05:10:49;;;;;;;15.63;7.53;;;13.90;99.90;;;;;;5024639;28;20053;-75
2023/07/30 05:13:16;;;;;;;15.38;6.85;;;13.90;99.90;;;;;;5022511;28;20099;-74
2023/07/30 05:15:43;;;;;;;14.70;6.70;;;14.00;99.90;;;;;;5022287;28;20146;-73
2023/07/30 05:18:10;;;;;;;13.77;6.60;;;14.00;99.90;;;;;;5016119;28;20139;-75
2023/07/30 05:20:37;;;;;;;11.98;6.50;;;14.20;99.90;;;;;;5010476;28;20091;-72
2023/07/30 05:23:03;;;;;;;19.00;7.95;;;14.30;99.90;;;;;;5023930;28;20154;-73
2023/07/30 05:25:30;;;;;;;11.18;7.55;;;14.50;99.90;;;;;;5023038;28;20953;-73
2023/07/30 05:27:57;;;;;;;13.40;7.70;;;14.60;99.90;;;;;;5027830;28;20103;-75
2023/07/30 05:30:24;;;;;;;18.35;9.00;;;14.70;99.90;;;;;;5028632;28;20587;-73
2023/07/30 05:32:51;;;;;;;13.80;9.00;;;14.60;99.90;;;;;;5024920;28;20102;-73
2023/07/30 05:35:18;;;;;;;12.43;8.23;;;14.50;99.90;;;;;;5024877;28;20131;-74
2023/07/30 05:37:45;;;;;;;15.85;9.05;;;14.50;99.90;;;;;;5024290;28;20041;-74
2023/07/30 05:40:12;;;;;;;16.27;8.57;;;14.50;99.90;;;;;;5022514;28;20046;-73
2023/07/30 05:42:38;;;;;;;10.95;8.55;;;14.50;99.90;;;;;;5045277;28;20053;-74
2023/07/30 05:45:06;;;;;;;14.68;8.90;;;14.50;99.90;;;;;;5040680;28;20089;-73
2023/07/30 05:47:33;;;;;;;16.58;8.60;;;14.60;99.90;;;;;;5033574;28;20033;-73
2023/07/30 05:50:00;;;;;;;18.00;8.35;;;14.70;99.90;;;;;;5038006;28;20678;-74
2023/07/30 05:52:26;;;;;;;15.70;8.32;;;14.70;99.90;;;;;;5029614;28;20064;-74
2023/07/30 05:54:53;;;;;;;15.88;9.00;;;14.80;99.90;;;;;;5028009;28;20048;-73
2023/07/30 05:57:20;;;;;;;10.73;7.78;;;14.90;99.90;;;;;;5019321;28;20045;-74
2023/07/30 05:59:46;;;;;;;10.25;8.27;;;14.90;99.90;;;;;;5028234;28;20048;-74
2023/07/30 06:02:13;;;;;;;14.55;8.90;;;15.00;99.90;;;;;;5031602;28;20122;-74
2023/07/30 06:04:40;;;;;;;11.20;9.05;;;15.10;99.90;;;;;;5026499;28;20073;-74
2023/07/30 06:07:06;;;;;;;11.43;8.70;;;15.20;99.90;;;;;;5029294;28;20040;-74
2023/07/30 06:09:33;;;;;;;11.88;10.48;;;15.30;99.90;;;;;;5032657;28;20537;-73
2023/07/30 06:12:00;;;;;;;14.73;10.30;;;15.60;99.90;;;;;;5018873;28;20082;-74
2023/07/30 06:14:27;;;;;;;14.07;11.50;;;15.70;99.90;;;;;;5029565;28;20045;-73
2023/07/30 06:16:54;;;;;;;12.77;11.25;;;16.00;99.90;;;;;;5019717;28;20096;-74
2023/07/30 06:19:21;;;;;;;13.90;12.50;;;16.20;99.90;;;;;;5011950;28;20099;-74
2023/07/30 06:21:47;;;;;;;14.43;13.20;;;16.30;99.90;;;;;;5024562;28;20752;-74
2023/07/30 06:24:14;;;;;;;13.65;12.40;;;16.20;99.90;;;;;;5026164;28;20041;-74
2023/07/30 06:26:41;;;;;;;15.88;13.48;;;16.30;99.90;;;;;;5006833;28;20049;-74
2023/07/30 06:29:08;;;;;;;14.85;13.40;;;16.50;99.90;;;;;;5025494;28;20045;-73
2023/07/30 06:31:34;;;;;;;14.60;13.43;;;16.70;99.90;;;;;;5025560;28;20041;-74
2023/07/30 06:34:02;;;;;;;15.77;14.63;;;16.80;99.90;;;;;;5027165;28;20156;-74
2023/07/30 06:36:29;;;;;;;16.45;14.77;;;16.90;99.90;;;;;;5015010;28;20087;-74
2023/07/30 06:38:55;;;;;;;15.77;14.48;;;17.00;99.90;;;;;;5028632;28;20060;-74
2023/07/30 06:41:22;;;;;;;18.42;16.73;;;17.20;99.90;;;;;;5037133;28;20043;-74
2023/07/30 06:43:49;;;;;;;17.20;16.17;;;17.10;99.90;;;;;;5046167;28;20547;-74
2023/07/30 06:46:16;;;;;;;18.15;16.75;;;17.00;99.90;;;;;;5039404;28;20045;-73
2023/07/30 06:48:43;;;;;;;17.92;16.63;;;17.00;99.90;;;;;;5028792;28;20077;-74
2023/07/30 06:51:12;;;;;;;18.65;17.05;;;17.20;99.90;;;;;;5032898;28;20524;-75
2023/07/30 06:53:39;;;;;;;19.45;17.98;;;17.50;99.90;;;;;;5031085;28;20700;-74
2023/07/30 06:56:06;;;;;;;20.90;19.17;;;17.50;99.90;;;;;;5035373;28;20744;-74
2023/07/30 06:58:32;;;;;;;19.42;18.20;;;17.60;99.90;;;;;;5031377;28;20064;-74
2023/07/30 07:00:59;;;;;;;20.23;18.63;;;17.70;99.90;;;;;;5029247;28;20442;-73
2023/07/30 07:03:26;;;;;;;21.17;19.45;;;17.70;99.90;;;;;;5031563;28;20039;-74
2023/07/30 07:05:55;;;;;;;20.20;19.00;;;17.80;99.90;;;;;;5028747;28;20052;-73
2023/07/30 07:08:22;;;;;;;21.60;20.05;;;17.70;99.90;;;;;;5032550;28;20044;-74
2023/07/30 07:10:49;;;;;;;21.27;19.88;;;17.60;99.90;;;;;;5027241;28;20127;-73
2023/07/30 07:13:16;;;;;;;21.48;19.73;;;17.60;99.90;;;;;;5036070;28;20045;-74
2023/07/30 07:15:44;;;;;;;22.10;20.30;;;17.80;99.90;;;;;;5024876;28;20053;-74
2023/07/30 07:18:11;;;;;;;21.67;19.92;;;17.80;99.90;;;;;;5047525;28;20045;-73
2023/07/30 07:20:38;;;;;;;19.73;18.27;;;17.90;99.90;;;;;;5045522;28;20121;-75
2023/07/30 07:23:05;;;;;;;20.48;18.98;;;17.90;99.90;;;;;;5034737;28;20049;-75
2023/07/30 07:25:31;;;;;;;20.27;18.80;;;17.80;99.90;;;;;;5043686;28;20474;-74
2023/07/30 07:27:58;;;;;;;21.45;19.55;;;17.80;99.90;;;;;;5030902;28;20499;-73
2023/07/30 07:30:25;;;;;;;21.08;19.42;;;17.70;99.90;;;;;;5039221;28;20060;-73
2023/07/30 07:32:53;;;;;;;20.90;19.25;;;17.90;99.90;;;;;;5033142;28;20041;-73
2023/07/30 07:35:20;;;;;;;19.23;17.73;;;17.80;99.90;;;;;;5028154;28;20048;-75
2023/07/30 07:37:47;;;;;;;20.05;18.52;;;17.80;99.90;;;;;;5024514;28;20722;-73
2023/07/30 07:40:14;;;;;;;20.35;18.70;;;17.60;99.90;;;;;;5031491;28;20707;-74
2023/07/30 07:42:41;;;;;;;20.30;18.35;;;17.60;99.90;;;;;;5033739;28;20119;-71
2023/07/30 07:45:08;;;;;;;19.25;17.55;;;17.60;99.90;;;;;;5030647;28;20033;-75
2023/07/30 07:47:35;;;;;;;19.10;17.50;;;17.80;99.90;;;;;;5047243;28;20055;-75
2023/07/30 07:50:02;;;;;;;17.98;16.58;;;18.00;99.90;;;;;;5043069;28;20424;-74
2023/07/30 07:52:28;;;;;;;17.75;16.13;;;17.90;99.90;;;;;;5045235;28;20071;-74
2023/07/30 07:54:55;;;;;;;17.65;16.05;;;17.80;99.90;;;;;;5052642;28;20052;-75
2023/07/30 07:57:22;;;;;;;17.65;16.35;;;17.60;99.90;;;;;;5014866;28;20041;-74
2023/07/30 07:59:49;;;;;;;18.98;17.48;;;17.40;99.90;;;;;;5028861;28;20065;-75
2023/07/30 08:02:15;;;;;;;17.88;16.38;;;17.10;99.90;;;;;;5024926;28;20566;-74
2023/07/30 08:04:42;;;;;;;16.08;14.68;;;16.90;99.90;;;;;;5025049;28;20048;-75
2023/07/30 08:07:09;;;;;;;17.80;16.15;;;16.90;99.90;;;;;;5025878;28;20753;-75
2023/07/30 08:09:36;;;;;;;18.73;17.23;;;16.80;99.90;;;;;;5016466;28;20662;-75
2023/07/30 08:12:03;;;;;;;18.30;16.50;;;16.90;99.90;;;;;;5025268;28;20061;-75
2023/07/30 08:14:31;;;;;;;17.30;16.00;;;16.90;99.90;;;;;;5026270;28;20103;-75
2023/07/30 08:16:57;;;;;;;29.30;18.13;;;17.10;99.90;;;;;;5020216;28;20653;-73
2023/07/30 08:19:26;;;;;;;18.50;16.83;;;17.00;99.90;;;;;;5046219;28;20117;-74
2023/07/30 08:21:52;;;;;;;17.17;15.23;;;16.90;99.90;;;;;;5046801;28;20040;-73
2023/07/30 08:24:20;;;;;;;15.98;14.80;;;16.90;99.90;;;;;;5048538;28;20063;-74
2023/07/30 08:26:46;;;;;;;17.27;15.98;;;16.80;99.90;;;;;;5040222;28;20142;-73
2023/07/30 08:29:13;;;;;;;17.05;16.17;;;16.60;99.90;;;;;;5050451;28;20056;-73
2023/07/30 08:31:41;;;;;;;17.73;16.52;;;16.60;99.90;;;;;;5048089;28;20070;-74
2023/07/30 08:34:08;;;;;;;17.90;16.35;;;16.30;99.90;;;;;;5042105;28;20037;-74
2023/07/30 08:36:35;;;;;;;17.80;16.63;;;16.30;99.90;;;;;;5051319;28;20043;-74
2023/07/30 08:39:03;;;;;;;18.48;16.95;;;16.20;99.90;;;;;;5027638;28;20044;-74
2023/07/30 08:41:30;;;;;;;16.95;15.82;;;16.20;99.90;;;;;;5036962;28;20094;-74
2023/07/30 08:44:01;;;;;;;17.98;16.73;;;16.30;99.90;;;;;;5031236;23;20553;-85
2023/07/30 08:46:28;;;;;;;18.38;16.90;;;16.30;99.90;;;;;;4933177;28;20508;-82
2023/07/30 08:48:57;;;;;;;16.85;15.75;;;16.20;99.90;;;;;;4930415;28;20497;-85
2023/07/30 08:51:25;;;;;;;16.85;15.65;;;16.10;99.90;;;;;;4932179;28;20152;-82
2023/07/30 08:53:52;;;;;;;18.85;16.33;;;16.00;99.90;;;;;;4933957;28;20082;-82
2023/07/30 08:56:19;;;;;;;16.33;15.10;;;15.90;99.90;;;;;;4917959;28;20147;-84
2023/07/30 08:58:49;;;;;;;16.75;15.60;;;15.80;99.90;;;;;;4937315;28;20051;-83
2023/07/30 09:01:18;;;;;;;17.58;16.35;;;15.80;99.90;;;;;;4928148;28;20046;-85
2023/07/30 09:03:48;;;;;;;19.00;15.85;;;15.90;99.90;;;;;;4934490;28;20066;-87
2023/07/30 09:06:15;;;;;;;15.90;14.80;;;15.90;99.90;;;;;;4919859;28;20054;-82
2023/07/30 09:08:42;;;;;;;15.85;14.57;;;15.90;99.90;;;;;;4932421;28;20130;-86
2023/07/30 09:11:10;;;;;;;15.43;14.20;;;15.90;99.90;;;;;;4931584;28;20488;-85
2023/07/30 09:13:38;;;;;;;14.90;13.95;;;15.90;99.90;;;;;;4931036;28;20246;-83
2023/07/30 09:16:13;;;;;;;16.60;14.85;;;15.80;99.90;;;;;;4923759;28;20035;-84
2023/07/30 09:18:49;;;;;;;16.02;14.85;;;15.80;99.90;;;;;;4932768;28;20409;-83
2023/07/30 09:21:17;;;;;;;15.55;14.48;;;15.90;99.90;;;;;;4924435;28;20632;-84
2023/07/30 09:23:46;;;;;;;16.20;15.05;;;15.90;99.90;;;;;;4936127;28;20047;-78
2023/07/30 09:26:14;;;;;;;16.73;15.43;;;15.90;99.90;;;;;;4929615;28;20583;-78
2023/07/30 09:28:40;;;;;;;17.40;16.00;;;16.00;99.90;;;;;;4915520;28;20122;-80
2023/07/30 09:31:08;;;;;;;17.52;16.17;;;16.10;99.90;;;;;;4947320;28;20579;-80
2023/07/30 09:33:48;;;;;;;17.50;15.85;;;16.00;99.90;;;;;;4949195;28;20271;-81
2023/07/30 09:36:19;;;;;;;17.98;16.40;;;15.90;99.90;;;;;;4944616;28;20363;-82
2023/07/30 09:38:46;;;;;;;18.10;16.55;;;16.00;99.90;;;;;;4950531;28;20047;-82
2023/07/30 09:41:14;;;;;;;19.17;17.40;;;16.20;99.90;;;;;;4937021;28;20047;-82
2023/07/30 09:43:41;;;;;;;19.65;17.67;;;16.30;99.90;;;;;;4935885;28;20075;-84
2023/07/30 09:46:09;;;;;;;17.80;16.70;;;16.50;99.90;;;;;;4935774;28;20065;-84
2023/07/30 09:48:36;;;;;;;18.05;16.55;;;16.40;99.90;;;;;;4944805;28;20107;-82
2023/07/30 09:51:03;;;;;;;18.95;17.50;;;16.40;99.90;;;;;;4931584;28;20046;-80
2023/07/30 09:53:37;;;;;;;18.08;16.35;;;16.30;99.90;;;;;;4934893;28;20051;-79
2023/07/30 09:56:05;;;;;;;18.67;17.30;;;16.30;99.90;;;;;;4930954;28;20048;-82
2023/07/30 09:58:32;;;;;;;18.80;17.23;;;16.40;99.90;;;;;;4937810;28;20260;-83
2023/07/30 10:01:04;;;;;;;19.20;17.48;;;16.50;99.90;;;;;;4953267;28;20047;-82
2023/07/30 10:03:34;;;;;;;18.30;16.88;;;16.60;99.90;;;;;;4917594;28;20552;-84
2023/07/30 10:06:07;;;;;;;19.25;17.77;;;16.90;99.90;;;;;;4915608;28;20046;-81
2023/07/30 10:08:39;;;;;;;20.52;19.00;;;17.20;99.90;;;;;;4953914;28;20664;-82
2023/07/30 10:11:09;;;;;;;19.20;17.70;;;17.20;99.90;;;;;;4920789;28;20098;-81
2023/07/30 10:13:39;;;;;;;20.00;18.42;;;17.30;99.90;;;;;;4942634;28;20090;-85
2023/07/30 10:16:11;;;;;;;20.48;18.85;;;17.10;99.90;;;;;;4954116;28;20049;-84
2023/07/30 10:18:42;;;;;;;19.95;18.48;;;16.90;99.90;;;;;;4946998;28;20068;-84
2023/07/30 10:21:21;;;;;;;19.58;17.95;;;16.90;99.90;;;;;;4932885;28;20050;-84
2023/07/30 10:24:04;;;;;;;19.58;17.85;;;17.00;99.90;;;;;;4945597;28;20236;-83
2023/07/30 10:26:33;;;;;;;19.33;17.50;;;17.00;99.90;;;;;;4937670;28;20074;-84
2023/07/30 10:29:18;;;;;;;19.52;17.90;;;16.90;99.90;;;;;;4933645;28;20043;-85
2023/07/30 10:31:55;;;;;;;18.10;16.80;;;16.90;99.90;;;;;;4932003;28;20130;-83
2023/07/30 10:34:27;;;;;;;20.80;18.67;;;16.70;99.90;;;;;;4941481;28;20333;-85
2023/07/30 10:36:59;;;;;;;19.27;17.60;;;16.90;99.90;;;;;;4925710;28;20082;-86
2023/07/30 10:39:28;;;;;;;21.00;18.98;;;17.00;99.90;;;;;;4951490;28;20210;-86
2023/07/30 10:41:58;;;;;;;20.85;19.05;;;17.00;99.90;;;;;;4949540;28;20121;-83
2023/07/30 10:44:35;;;;;;;19.15;17.77;;;17.10;99.90;;;;;;4937153;28;20047;-80
2023/07/30 10:47:03;;;;;;;20.45;18.70;;;17.10;99.90;;;;;;4937711;28;20129;-85
2023/07/30 10:49:40;;;;;;;20.55;18.77;;;17.10;99.90;;;;;;4954774;28;20500;-83
2023/07/30 10:52:07;;;;;;;20.27;18.13;;;17.00;99.90;;;;;;4935272;28;20579;-84
2023/07/30 10:54:34;;;;;;;21.50;19.35;;;17.00;99.90;;;;;;4941133;28;20047;-86
2023/07/30 10:57:02;;;;;;;20.42;18.60;;;17.00;99.90;;;;;;4942700;28;20798;-85
2023/07/30 10:59:37;;;;;;;21.02;19.08;;;17.10;99.90;;;;;;4957979;28;20051;-84
2023/07/30 11:02:04;;;;;;;22.70;20.20;;;17.30;99.90;;;;;;4931299;28;20047;-86
2023/07/30 11:04:34;;;;;;;22.67;20.83;;;17.60;99.90;;;;;;4923844;28;20749;-85
2023/07/30 11:07:03;;;;;;;24.45;22.20;;;17.80;99.90;;;;;;4936208;28;20647;-84
2023/07/30 11:09:30;;;;;;;22.85;21.17;;;18.10;99.90;;;;;;4952115;28;20328;-83
2023/07/30 11:11:57;;;;;;;24.77;23.10;;;18.40;99.90;;;;;;4950214;28;20055;-79
2023/07/30 11:14:26;;;;;;;24.98;22.80;;;18.60;99.90;;;;;;4919387;28;20125;-85
2023/07/30 11:17:00;;;;;;;24.95;22.90;;;18.70;99.90;;;;;;4945652;28;20524;-84
2023/07/30 11:19:28;;;;;;;23.38;21.27;;;18.70;99.90;;;;;;4921576;28;20138;-83
2023/07/30 11:21:57;;;;;;;23.20;21.75;;;19.00;99.90;;;;;;4901268;28;20498;-81
2023/07/30 11:24:35;;;;;;;28.70;26.60;;;19.10;99.90;;;;;;4897475;28;20052;-85
2023/07/30 11:27:02;;;;;;;26.20;23.92;;;19.20;99.90;;;;;;4934970;28;20747;-85
2023/07/30 11:29:30;;;;;;;28.95;26.38;;;19.30;99.90;;;;;;4936247;28;20055;-87
2023/07/30 11:31:58;;;;;;;24.70;22.60;;;19.40;99.90;;;;;;4930698;28;20153;-86
2023/07/30 11:34:27;;;;;;;24.45;22.45;;;19.80;99.90;;;;;;4923909;28;20043;-84
2023/07/30 11:36:55;;;;;;;26.45;24.02;;;19.70;99.90;;;;;;4941175;28;20526;-83
2023/07/30 11:39:24;;;;;;;26.77;24.52;;;19.70;99.90;;;;;;4941707;28;20212;-83
2023/07/30 11:41:51;;;;;;;21.88;20.27;;;20.00;99.90;;;;;;4921969;28;20461;-86
2023/07/30 11:44:37;;;;;;;21.58;19.95;;;20.00;99.90;;;;;;4927403;28;20047;-82
2023/07/30 11:47:06;;;;;;;23.98;21.75;;;19.50;99.90;;;;;;4929650;28;20117;-89
2023/07/30 11:49:33;;;;;;;25.60;23.63;;;19.30;99.90;;;;;;4934624;28;20162;-85
2023/07/30 11:52:08;;;;;;;27.52;25.63;;;19.30;99.90;;;;;;4935461;28;20142;-84
2023/07/30 11:54:35;;;;;;;;;;;19.50;99.90;;;;;;4931756;28;20682;-84
2023/07/30 11:57:02;;;;;;;23.52;21.65;;;20.20;99.90;;;;;;4951611;28;20025;-89
2023/07/30 11:59:31;;;;;;;25.30;23.35;;;20.10;99.90;;;;;;4952161;28;20082;-84
2023/07/30 12:01:58;;;;;;;21.77;20.05;;;20.10;99.90;;;;;;4929759;28;20053;-84
2023/07/30 12:04:30;;;;;;;23.25;21.40;;;20.50;99.90;;;;;;4922222;28;20086;-85
2023/07/30 12:06:57;;;;;;;26.38;24.40;;;20.30;99.90;;;;;;4932714;28;20094;-83
2023/07/30 12:09:30;;;;;;;21.45;19.92;;;20.20;99.90;;;;;;4937651;28;20058;-84
2023/07/30 12:11:59;;;;;;;21.75;20.10;;;20.20;99.90;;;;;;4931112;28;20131;-86
2023/07/30 12:14:32;;;;;;;25.83;24.02;;;20.00;99.90;;;;;;4926628;28;20105;-87
2023/07/30 12:17:00;;;;;;;25.88;24.05;;;19.80;99.90;;;;;;4913313;29;20039;-87
2023/07/30 12:19:27;;;;;;;25.83;24.13;;;20.30;99.90;;;;;;4926709;28;20117;-85
2023/07/30 12:21:55;;;;;;;24.50;22.63;;;20.60;99.90;;;;;;4937147;28;20116;-87
2023/07/30 12:24:22;;;;;;;26.48;23.88;;;20.60;99.90;;;;;;4933455;28;20046;-82
2023/07/30 12:26:49;;;;;;;27.65;25.45;;;20.60;99.90;;;;;;4959911;28;20050;-88
2023/07/30 12:29:20;;;;;;;26.02;24.25;;;20.70;99.90;;;;;;4934435;28;20043;-87
2023/07/30 12:31:47;;;;;;;26.73;24.55;;;20.80;99.90;;;;;;4945377;28;20806;-87